Aswan, Egypt

10:42 AM EET on July 25, 2016 (GMT +0200)
Aswan International | | Change Station

Elev 636 ft 23.96 °N, 32.82 °E | Updated 42 minutes ago

Clear
Clear
93 °F
Feels Like 93 °F
N
7
Wind Variable Wind from NNE

Today
High -- | Low -- °F
--% Chance of Precip.
Yesterday
High -- | Low -- °F
Precip. -- in
Pressure 29.71 in
Visibility -9999.0 miles
Clouds
Dew Point 52 °F
Humidity 24%
Rainfall 0.00 in
Snow Depth Not available.
5:15 AM 6:35 PM
Waning Gibbous, 68% visible
METAR HESN 250800Z 02006KT CAVOK 34/11 Q1006 NOSIG
Pressure 29.71 in
Visibility -9999.0 miles
Clouds
Dew Point 52 °F
Humidity 24%
Rainfall 0.00 in
Snow Depth Not available.
5:15 AM 6:35 PM
Waning Gibbous, 68% visible
METAR HESN 250800Z 02006KT CAVOK 34/11 Q1006 NOSIG

10-Day Weather Forecast

No radar image for this location.
×

Almanac

Astronomy

Jul. 25, 2016 Rise Set
Actual Time
Civil Twilight
Nautical Twilight
Astronomical Twilight
Moon
Length of Visible Light
Length of Day
Tomorrow will be .
, % of the Moon is Illuminated

Today's Extremes

Country Highs Country Lows

Community

WunderPhotos

Upload Photos

1,927,274 photos uploaded!

WunderBlog® & News

Nearby

Air Quality

  Air Quality AQ Index Pollutant
Not available.

Snow Depth

Station Depth Elevation

Earthquake Activity

City Distance Mag. Time & Date
Minimum magnitude displayed is 2.5.

Coastal Water Temperatures

Place Temperature

Stations

Nearby Weather Stations

Station Location Temp. Windchill Dew Point Humidity Wind Precip. Elev Updated Type